Myra, Kentucky
Current Conditions -  °F | °C
As of 2:55 AM on Friday 24 Oct 2014 (Local Time) from KPBX Reporting Station
Clear Clear  
Wind Chill: 40°   Ceiling: Unl
Heat Index: 43°   Visibility: 10mi
Dew Point: 41°   Wind: 5mph
Humidity: 92%   Direction: 160°SSE
Pressure: 30.12"   Gusts: NA
Location:  37.29°N, 82.6°W
Report Text: KPBX 240655Z AUTO 16004KT 10SM CLR 06/05 A3012 RMK AO2 T00600048
Loading
Personal Weather Stations






























Interactive Weather Map
Tropical Storm Tracking
New forecast layout! Learn more

10-Day Weather Forecast

Advertisements
Track Severe Weather on mobile